KGFL/GFL METAR and TAF weather

Enter ICAO airport designator
Station Type Date Time Source
KGFL METAR 2020/07/11 03:53 UTC NOAA

KGFL 110353Z AUTO 06009KT 10SM BKN040 BKN060 OVC075 24/21 A2976 RMK AO2 SLP075 T02440206


Station Type Date Time Source
KGFL Decoded METAR 2020/07/11 03:53 UTC NOAA

FLOYD BENNETT MEMORIAL AIRPORT , NY, United States (KGFL) 43-20N 073-37W 103M
Jul 10, 2020 - 11:53 PM EDT / 2020.07.11 0353 UTC
Wind: from the ENE (060 degrees) at 10 MPH (9 KT):0
Visibility: 10 mile(s):0
Sky conditions: overcast
Temperature: 75.9 F (24.4 C)
Dew Point: 69.1 F (20.6 C)
Relative Humidity: 79%
Pressure (altimeter): 29.76 in. Hg (1007 hPa)
ob: KGFL 110353Z AUTO 06009KT 10SM BKN040 BKN060 OVC075 24/21 A2976 RMK AO2 SLP075 T02440206
cycle: 4

Station Type Date Time Source
KGFL TAF 2020/07/11 04:58 UTC NOAA

TAF
AMD KGFL 110356Z 1104/1124 02007KT 6SM -SHRA BR SCT020 OVC035
TEMPO 1104/1106 1SM +SHRA BR OVC020
FM110600 06008KT 1SM +SHRA BR OVC012
FM111500 20005KT 6SM -SHRA SCT020 BKN040 PROB30 1118/1124 3SM -TSRA BR BKN020CB

Example: see airport list